createdAt,value
2019-03-03T00:00:58.138Z,10.93
2019-03-03T00:02:02.797Z,11.93
2019-03-03T00:03:06.966Z,11.10
2019-03-03T00:04:11.149Z,10.90
2019-03-03T00:05:15.298Z,12.20
2019-03-03T00:06:19.520Z,10.58
2019-03-03T00:07:23.655Z,11.15
2019-03-03T00:08:27.769Z,10.58
2019-03-03T00:09:32.020Z,10.78
2019-03-03T00:10:36.395Z,10.50
2019-03-03T00:11:40.677Z,10.68
2019-03-03T00:12:44.839Z,10.32
2019-03-03T00:13:48.977Z,9.90
2019-03-03T00:14:53.268Z,10.38
2019-03-03T00:15:57.388Z,9.38
2019-03-03T00:17:01.730Z,12.07
2019-03-03T00:18:05.876Z,11.12
2019-03-03T00:19:10.098Z,9.70
2019-03-03T00:20:14.601Z,10.00
2019-03-03T00:21:18.776Z,10.32
2019-03-03T00:22:23.017Z,9.83
2019-03-03T00:23:27.346Z,9.45
2019-03-03T00:24:31.538Z,9.90
2019-03-03T00:25:35.818Z,9.68
2019-03-03T00:26:40.075Z,9.85
2019-03-03T00:27:44.236Z,10.20
2019-03-03T00:28:48.567Z,10.20
2019-03-03T00:29:52.853Z,10.53
2019-03-03T00:30:57.073Z,9.63
2019-03-03T00:32:01.267Z,9.30
2019-03-03T00:33:05.651Z,9.33
2019-03-03T00:34:09.871Z,9.30
2019-03-03T00:35:14.449Z,9.58
2019-03-03T00:36:19.019Z,10.15
2019-03-03T00:37:40.873Z,10.03
2019-03-03T00:39:07.122Z,9.53
2019-03-03T00:40:30.489Z,10.15
2019-03-03T00:41:59.703Z,9.58
2019-03-03T00:43:13.909Z,9.70
2019-03-03T00:44:40.015Z,9.10
2019-03-03T00:46:03.233Z,9.20
2019-03-03T00:47:19.602Z,8.83
2019-03-03T00:48:58.253Z,9.38
2019-03-03T00:50:27.691Z,9.60
2019-03-03T00:51:40.099Z,8.30
2019-03-03T00:53:04.882Z,9.13
2019-03-03T00:54:30.843Z,8.08
2019-03-03T00:55:54.111Z,8.80
2019-03-03T00:57:20.396Z,8.43
2019-03-03T00:58:43.716Z,8.85
2019-03-03T00:59:53.353Z,8.45
2019-03-03T01:01:11.922Z,9.05
2019-03-03T01:02:36.935Z,8.50
2019-03-03T01:03:50.517Z,8.68
2019-03-03T01:04:59.629Z,8.30
2019-03-03T01:06:21.761Z,9.80
2019-03-03T01:07:35.909Z,7.47
2019-03-03T01:09:02.219Z,8.83
2019-03-03T01:10:15.240Z,7.90
2019-03-03T01:11:47.492Z,8.33
2019-03-03T01:12:56.034Z,9.23
2019-03-03T01:14:12.809Z,8.30
2019-03-03T01:15:26.018Z,7.78
2019-03-03T01:16:42.411Z,8.08
2019-03-03T01:18:08.507Z,7.35
2019-03-03T01:19:37.979Z,8.48
2019-03-03T01:20:50.125Z,8.55
2019-03-03T01:22:16.065Z,7.83
2019-03-03T01:23:45.554Z,7.80
2019-03-03T01:24:58.773Z,7.22
2019-03-03T01:26:03.078Z,7.80
2019-03-03T01:27:07.365Z,8.15
2019-03-03T01:28:11.650Z,8.03
2019-03-03T01:29:16.210Z,7.42
2019-03-03T01:30:20.505Z,7.75
2019-03-03T01:31:24.693Z,8.28
2019-03-03T01:32:28.990Z,7.58
2019-03-03T01:33:33.193Z,7.47
2019-03-03T01:34:37.345Z,7.72
2019-03-03T01:35:41.619Z,7.25
2019-03-03T01:36:45.797Z,7.60
2019-03-03T01:37:50.097Z,7.00
2019-03-03T01:38:54.222Z,7.97
2019-03-03T01:39:58.732Z,7.90
2019-03-03T01:41:03.029Z,8.50
2019-03-03T01:42:07.362Z,8.23
2019-03-03T01:43:11.649Z,7.60
2019-03-03T01:44:15.938Z,7.30
2019-03-03T01:45:20.233Z,6.85
2019-03-03T01:46:24.423Z,7.45
2019-03-03T01:47:28.699Z,7.22
2019-03-03T01:48:32.975Z,6.80
2019-03-03T01:49:37.137Z,8.60
2019-03-03T01:50:41.316Z,7.28
2019-03-03T01:51:45.612Z,7.75
2019-03-03T01:52:49.792Z,7.97
2019-03-03T01:53:54.094Z,8.05
2019-03-03T01:54:58.488Z,7.47
2019-03-03T01:56:02.818Z,6.90
2019-03-03T01:57:07.134Z,7.05
2019-03-03T01:58:11.465Z,6.95
2019-03-03T01:59:15.645Z,7.30
2019-03-03T02:00:25.240Z,6.78
2019-03-03T02:01:29.757Z,6.42
2019-03-03T02:02:33.951Z,6.55
2019-03-03T02:03:39.022Z,7.03
2019-03-03T02:04:43.347Z,6.47
2019-03-03T02:05:47.781Z,7.15
2019-03-03T02:06:52.045Z,7.12
2019-03-03T02:07:56.390Z,5.70
2019-03-03T02:09:00.660Z,6.85
2019-03-03T02:10:05.245Z,6.22
2019-03-03T02:11:09.516Z,5.33
2019-03-03T02:12:13.730Z,6.70
2019-03-03T02:13:18.376Z,7.55
2019-03-03T02:14:22.643Z,6.12
2019-03-03T02:15:26.975Z,5.67
2019-03-03T02:16:31.235Z,6.08
2019-03-03T02:17:35.484Z,6.15
2019-03-03T02:18:39.808Z,5.90
2019-03-03T02:19:44.053Z,6.37
2019-03-03T02:20:48.393Z,5.70
2019-03-03T02:21:52.859Z,6.78
2019-03-03T02:22:57.051Z,5.87
2019-03-03T02:24:01.361Z,6.42
2019-03-03T02:25:06.349Z,6.10
2019-03-03T02:26:10.823Z,7.72
2019-03-03T02:27:15.016Z,6.25
2019-03-03T02:28:19.333Z,7.33
2019-03-03T02:29:23.611Z,5.67
2019-03-03T02:30:27.837Z,6.50
2019-03-03T02:31:32.146Z,6.15
2019-03-03T02:32:36.424Z,6.30
2019-03-03T02:33:41.043Z,6.95
2019-03-03T02:34:45.329Z,5.80
2019-03-03T02:35:49.707Z,6.75
2019-03-03T02:36:54.102Z,6.20
2019-03-03T02:37:58.244Z,5.75
2019-03-03T02:39:02.572Z,5.78
2019-03-03T02:40:07.958Z,5.85
2019-03-03T02:41:13.014Z,6.62
2019-03-03T02:42:17.320Z,6.05
2019-03-03T02:43:21.511Z,6.55
2019-03-03T02:44:25.715Z,5.92
2019-03-03T02:45:29.969Z,7.60
2019-03-03T02:46:34.298Z,6.17
2019-03-03T02:47:38.645Z,4.97
2019-03-03T02:48:42.852Z,6.42
2019-03-03T02:49:47.157Z,5.90
2019-03-03T02:50:51.476Z,6.00
2019-03-03T02:51:56.175Z,5.97
2019-03-03T02:53:00.518Z,6.35
2019-03-03T02:54:05.050Z,5.53
2019-03-03T02:55:10.845Z,5.75
2019-03-03T02:56:15.144Z,5.67
2019-03-03T02:57:19.300Z,5.78
2019-03-03T02:58:23.506Z,5.95
2019-03-03T02:59:27.695Z,5.92
2019-03-03T03:00:31.889Z,5.78
2019-03-03T03:01:39.717Z,5.50
2019-03-03T03:02:51.231Z,6.17
2019-03-03T03:03:55.653Z,6.20
2019-03-03T03:04:59.935Z,5.37
2019-03-03T03:06:12.589Z,4.85
2019-03-03T03:07:41.812Z,5.15
2019-03-03T03:09:03.895Z,4.53
2019-03-03T03:10:21.252Z,5.53
2019-03-03T03:11:47.560Z,5.40
2019-03-03T03:13:05.667Z,5.50
2019-03-03T03:14:31.947Z,4.65
2019-03-03T03:15:55.196Z,5.60
2019-03-03T03:17:18.406Z,4.83
2019-03-03T03:18:39.377Z,4.87
2019-03-03T03:20:08.916Z,5.08
2019-03-03T03:21:18.448Z,5.10
2019-03-03T03:22:41.651Z,5.40
2019-03-03T03:23:59.821Z,5.33
2019-03-03T03:25:29.340Z,5.20
2019-03-03T03:26:42.862Z,4.95
2019-03-03T03:28:12.356Z,4.55
2019-03-03T03:29:44.677Z,4.60
2019-03-03T03:31:16.997Z,4.40
2019-03-03T03:32:29.182Z,5.53
2019-03-03T03:33:40.469Z,4.55
2019-03-03T03:34:57.439Z,4.10
2019-03-03T03:36:20.070Z,4.17
2019-03-03T03:37:49.398Z,4.45
2019-03-03T03:39:16.028Z,4.58
2019-03-03T03:40:40.905Z,3.92
2019-03-03T03:42:02.370Z,4.00
2019-03-03T03:43:28.314Z,3.95
2019-03-03T03:44:45.992Z,4.17
2019-03-03T03:46:08.400Z,4.10
2019-03-03T03:47:46.782Z,4.28
2019-03-03T03:49:15.959Z,3.60
2019-03-03T03:50:47.310Z,3.77
2019-03-03T03:52:13.550Z,3.83
2019-03-03T03:53:24.519Z,4.35
2019-03-03T03:54:49.526Z,4.55
2019-03-03T03:56:09.158Z,3.75
2019-03-03T03:57:35.405Z,4.00
2019-03-03T03:58:58.014Z,4.00
2019-03-03T04:00:18.407Z,4.40
2019-03-03T04:01:28.746Z,4.25
2019-03-03T04:02:50.847Z,4.00
2019-03-03T04:04:19.961Z,4.30
2019-03-03T04:05:55.152Z,4.25
2019-03-03T04:07:24.263Z,4.05
2019-03-03T04:08:47.469Z,4.42
2019-03-03T04:09:57.192Z,4.72
2019-03-03T04:11:26.686Z,4.00
2019-03-03T04:12:52.741Z,4.55
2019-03-03T04:14:18.012Z,4.33
2019-03-03T04:15:38.589Z,4.55
2019-03-03T04:17:01.801Z,3.95
2019-03-03T04:18:25.064Z,4.00
2019-03-03T04:19:51.084Z,3.65
2019-03-03T04:21:04.580Z,4.20
2019-03-03T04:22:29.722Z,3.75
2019-03-03T04:23:56.169Z,4.58
2019-03-03T04:25:14.279Z,3.85
2019-03-03T04:26:36.175Z,3.05
2019-03-03T04:27:53.845Z,3.85
2019-03-03T04:29:03.429Z,4.15
2019-03-03T04:30:23.100Z,3.70
2019-03-03T04:31:44.856Z,3.20
2019-03-03T04:33:23.430Z,3.20
2019-03-03T04:34:58.775Z,3.00
2019-03-03T04:36:27.849Z,3.27
2019-03-03T04:37:39.335Z,3.30
2019-03-03T04:39:02.571Z,2.95
2019-03-03T04:40:38.367Z,3.08
2019-03-03T04:41:51.857Z,2.98
2019-03-03T04:43:01.495Z,3.87
2019-03-03T04:44:17.377Z,3.12
2019-03-03T04:45:27.952Z,2.95
2019-03-03T04:46:38.069Z,3.17
2019-03-03T04:48:00.161Z,3.67
2019-03-03T04:49:29.417Z,3.30
2019-03-03T04:51:01.935Z,3.35
2019-03-03T04:52:23.959Z,2.92
2019-03-03T04:53:50.025Z,2.98
2019-03-03T04:55:11.975Z,2.65
2019-03-03T04:56:41.503Z,2.58
2019-03-03T04:58:10.560Z,2.50
2019-03-03T04:59:39.825Z,2.10
2019-03-03T05:01:06.089Z,2.83
2019-03-03T05:02:25.217Z,2.72
2019-03-03T05:03:38.183Z,2.17
2019-03-03T05:05:07.463Z,2.40
2019-03-03T05:06:39.668Z,2.52
2019-03-03T05:08:00.941Z,2.15
2019-03-03T05:09:15.053Z,2.20
2019-03-03T05:10:47.393Z,3.08
2019-03-03T05:12:50.583Z,2.35
2019-03-03T05:14:14.271Z,2.20
2019-03-03T05:15:46.463Z,2.25
2019-03-03T05:16:57.409Z,2.58
2019-03-03T05:18:08.188Z,2.15
2019-03-03T05:19:26.139Z,2.12
2019-03-03T05:20:45.506Z,2.22
2019-03-03T05:21:49.683Z,2.80
2019-03-03T05:22:53.941Z,2.20
2019-03-03T05:23:58.449Z,3.15
2019-03-03T05:25:03.109Z,2.27
2019-03-03T05:26:07.340Z,2.45
2019-03-03T05:27:11.676Z,3.00
2019-03-03T05:28:15.917Z,2.47
2019-03-03T05:29:20.132Z,2.67
2019-03-03T05:30:24.335Z,2.25
2019-03-03T05:31:29.399Z,2.65
2019-03-03T05:32:33.771Z,2.22
2019-03-03T05:33:37.907Z,2.42
2019-03-03T05:34:42.203Z,2.45
2019-03-03T05:35:46.468Z,2.00
2019-03-03T05:36:50.667Z,2.37
2019-03-03T05:37:54.897Z,2.30
2019-03-03T05:38:59.209Z,2.83
2019-03-03T05:40:03.563Z,2.45
2019-03-03T05:41:08.015Z,2.40
2019-03-03T05:42:12.326Z,2.42
2019-03-03T05:43:16.421Z,2.20
2019-03-03T05:44:20.685Z,2.58
2019-03-03T05:45:24.798Z,2.67
2019-03-03T05:46:28.979Z,2.17
2019-03-03T05:47:33.268Z,2.62
2019-03-03T05:48:37.454Z,2.22
2019-03-03T05:49:41.769Z,2.62
2019-03-03T05:50:46.050Z,3.02
2019-03-03T05:51:50.323Z,2.65
2019-03-03T05:52:54.594Z,2.60
2019-03-03T05:53:58.899Z,2.55
2019-03-03T05:55:03.109Z,2.20
2019-03-03T05:56:07.281Z,2.50
2019-03-03T05:57:11.555Z,2.30
2019-03-03T05:58:15.765Z,2.70
2019-03-03T05:59:20.038Z,2.70
2019-03-03T06:00:24.166Z,2.98
2019-03-03T06:01:28.519Z,2.35
2019-03-03T06:02:32.825Z,2.35
2019-03-03T06:03:37.055Z,2.35
2019-03-03T06:04:41.235Z,2.75
2019-03-03T06:05:47.427Z,2.60
2019-03-03T06:06:51.951Z,2.70
2019-03-03T06:07:56.107Z,2.60
2019-03-03T06:09:00.397Z,2.77
2019-03-03T06:10:04.904Z,2.98
2019-03-03T06:11:09.183Z,3.00
2019-03-03T06:12:13.370Z,3.08
2019-03-03T06:13:17.522Z,2.65
2019-03-03T06:14:21.716Z,3.05
2019-03-03T06:15:26.349Z,3.35
2019-03-03T06:16:30.523Z,2.87
2019-03-03T06:17:34.773Z,2.87
2019-03-03T06:18:39.052Z,2.80
2019-03-03T06:19:43.329Z,3.42
2019-03-03T06:20:47.797Z,2.80
2019-03-03T06:21:51.945Z,3.15
2019-03-03T06:22:56.207Z,3.47
2019-03-03T06:24:00.331Z,3.00
2019-03-03T06:25:05.123Z,3.20
2019-03-03T06:26:09.471Z,3.42
2019-03-03T06:27:13.684Z,2.95
2019-03-03T06:28:17.851Z,3.25
2019-03-03T06:29:22.003Z,3.10
2019-03-03T06:30:26.278Z,3.25
2019-03-03T06:31:30.445Z,3.12
2019-03-03T06:32:34.694Z,3.25
2019-03-03T06:33:39.019Z,3.15
2019-03-03T06:34:43.717Z,3.17
2019-03-03T06:35:48.012Z,3.00
2019-03-03T06:36:52.283Z,3.05
2019-03-03T06:37:56.620Z,2.70
2019-03-03T06:39:00.972Z,2.92
2019-03-03T06:40:06.166Z,3.00
2019-03-03T06:41:10.297Z,2.55
2019-03-03T06:42:14.630Z,3.20
2019-03-03T06:43:18.906Z,3.05
2019-03-03T06:44:23.037Z,3.08
2019-03-03T06:45:27.232Z,3.65
2019-03-03T06:46:31.425Z,3.85
2019-03-03T06:47:35.641Z,3.50
2019-03-03T06:48:39.815Z,2.72
2019-03-03T06:49:44.091Z,3.22
2019-03-03T06:50:48.280Z,2.67
2019-03-03T06:51:52.605Z,3.30
2019-03-03T06:52:56.967Z,3.02
2019-03-03T06:54:01.173Z,3.20
2019-03-03T06:55:05.512Z,3.37
2019-03-03T06:56:09.673Z,2.90
2019-03-03T06:57:13.799Z,2.80
2019-03-03T06:58:18.054Z,3.42
2019-03-03T06:59:22.227Z,3.58
2019-03-03T07:00:26.401Z,3.27
2019-03-03T07:01:30.675Z,3.27
2019-03-03T07:02:34.827Z,3.67
2019-03-03T07:03:39.089Z,3.12
2019-03-03T07:04:43.464Z,3.42
2019-03-03T07:05:48.017Z,3.52
2019-03-03T07:06:52.307Z,3.47
2019-03-03T07:07:56.563Z,3.87
2019-03-03T07:09:00.727Z,3.67
2019-03-03T07:10:06.401Z,3.35
2019-03-03T07:11:10.845Z,3.40
2019-03-03T07:12:15.023Z,3.90
2019-03-03T07:13:19.299Z,3.47
2019-03-03T07:14:23.488Z,3.67
2019-03-03T07:15:27.941Z,3.92
2019-03-03T07:16:32.090Z,3.37
2019-03-03T07:17:36.766Z,3.90
2019-03-03T07:18:40.999Z,3.30
2019-03-03T07:19:45.278Z,3.67
2019-03-03T07:20:49.444Z,3.40
2019-03-03T07:21:53.647Z,4.10
2019-03-03T07:22:57.831Z,3.60
2019-03-03T07:24:02.010Z,3.65
2019-03-03T07:25:07.595Z,3.75
2019-03-03T07:26:11.873Z,4.00
2019-03-03T07:27:16.168Z,3.47
2019-03-03T07:28:20.385Z,3.40
2019-03-03T07:29:24.695Z,3.87
2019-03-03T07:30:28.868Z,4.00
2019-03-03T07:31:33.082Z,3.70
2019-03-03T07:32:41.849Z,3.65
2019-03-03T07:33:50.533Z,3.30
2019-03-03T07:34:54.834Z,3.80
2019-03-03T07:35:58.977Z,3.50
2019-03-03T07:37:03.273Z,4.25
2019-03-03T07:38:07.504Z,4.08
2019-03-03T07:39:16.908Z,3.83
2019-03-03T07:40:21.095Z,3.70
2019-03-03T07:41:25.404Z,3.08
2019-03-03T07:42:29.697Z,3.42
2019-03-03T07:43:33.874Z,3.47
2019-03-03T07:44:38.169Z,3.27
2019-03-03T07:45:42.476Z,3.80
2019-03-03T07:46:46.749Z,3.67
2019-03-03T07:47:50.876Z,3.40
2019-03-03T07:48:55.129Z,3.60
2019-03-03T07:49:59.325Z,3.90
2019-03-03T07:51:03.503Z,3.15
2019-03-03T07:52:07.746Z,3.10
2019-03-03T07:53:12.057Z,3.70
2019-03-03T07:54:16.289Z,3.52
2019-03-03T07:55:20.756Z,4.17
2019-03-03T07:56:25.065Z,3.33
2019-03-03T07:57:29.237Z,3.60
2019-03-03T07:58:33.540Z,3.20
2019-03-03T07:59:37.675Z,3.50
2019-03-03T08:00:41.945Z,3.83
2019-03-03T08:01:46.128Z,3.50
2019-03-03T08:02:50.399Z,3.77
2019-03-03T08:03:54.700Z,3.50
2019-03-03T08:04:58.887Z,3.42
2019-03-03T08:06:03.396Z,3.80
2019-03-03T08:07:07.637Z,3.60
2019-03-03T08:08:11.947Z,2.92
2019-03-03T08:09:16.242Z,3.35
2019-03-03T08:10:20.511Z,3.22
2019-03-03T08:11:24.695Z,3.30
2019-03-03T08:12:28.904Z,3.17
2019-03-03T08:13:33.163Z,3.30
2019-03-03T08:14:37.325Z,3.30
2019-03-03T08:15:41.484Z,3.55
2019-03-03T08:16:45.759Z,4.33
2019-03-03T08:17:50.021Z,3.35
2019-03-03T08:18:54.157Z,4.30
2019-03-03T08:19:58.432Z,3.40
2019-03-03T08:21:02.731Z,3.15
2019-03-03T08:22:06.964Z,3.10
2019-03-03T08:23:11.223Z,3.90
2019-03-03T08:24:15.744Z,3.02
2019-03-03T08:25:19.911Z,3.95
2019-03-03T08:26:24.115Z,3.67
2019-03-03T08:27:28.309Z,3.60
2019-03-03T08:28:32.659Z,3.17
2019-03-03T08:29:37.265Z,3.75
2019-03-03T08:30:41.620Z,3.22
2019-03-03T08:31:45.847Z,3.42
2019-03-03T08:32:49.997Z,2.90
2019-03-03T08:33:54.361Z,3.10
2019-03-03T08:34:58.919Z,2.60
2019-03-03T08:36:03.145Z,3.10
2019-03-03T08:37:07.335Z,3.67
2019-03-03T08:38:11.675Z,2.80
2019-03-03T08:39:15.982Z,3.10
2019-03-03T08:40:20.308Z,2.83
2019-03-03T08:41:24.489Z,3.67
2019-03-03T08:42:48.932Z,3.15
2019-03-03T08:44:21.501Z,2.80
2019-03-03T08:45:53.753Z,2.70
2019-03-03T08:47:22.692Z,2.62
2019-03-03T08:48:45.941Z,2.50
2019-03-03T08:50:12.917Z,2.50
2019-03-03T08:51:32.148Z,3.05
2019-03-03T08:52:55.369Z,3.08
2019-03-03T08:54:17.313Z,2.65
2019-03-03T08:55:32.452Z,2.52
2019-03-03T08:56:54.652Z,2.70
2019-03-03T08:58:08.985Z,2.85
2019-03-03T08:59:21.546Z,2.80
2019-03-03T09:00:47.795Z,3.22
2019-03-03T09:02:13.807Z,2.10
2019-03-03T09:03:28.368Z,2.30
2019-03-03T09:04:38.996Z,3.22
2019-03-03T09:06:11.315Z,2.33
2019-03-03T09:07:20.550Z,2.90
2019-03-03T09:08:40.871Z,2.75
2019-03-03T09:10:13.466Z,2.50
2019-03-03T09:11:49.043Z,2.50
2019-03-03T09:13:06.577Z,2.65
2019-03-03T09:14:27.692Z,2.20
2019-03-03T09:15:50.949Z,2.40
2019-03-03T09:17:11.924Z,2.70
2019-03-03T09:18:27.995Z,2.33
2019-03-03T09:19:47.874Z,2.65
2019-03-03T09:21:11.037Z,2.50
2019-03-03T09:22:33.195Z,2.27
2019-03-03T09:23:56.395Z,2.58
2019-03-03T09:25:07.967Z,2.30
2019-03-03T09:26:30.323Z,3.40
2019-03-03T09:28:08.657Z,2.30
2019-03-03T09:29:22.664Z,2.47
2019-03-03T09:30:39.755Z,2.80
2019-03-03T09:32:12.091Z,2.42
2019-03-03T09:33:34.182Z,3.70
2019-03-03T09:34:55.776Z,2.50
2019-03-03T09:36:21.796Z,2.50
2019-03-03T09:37:37.212Z,2.70
2019-03-03T09:38:55.465Z,2.50
2019-03-03T09:40:34.103Z,2.92
2019-03-03T09:42:09.407Z,2.42
2019-03-03T09:43:35.530Z,2.42
2019-03-03T09:44:58.385Z,2.72
2019-03-03T09:46:11.819Z,2.95
2019-03-03T09:47:41.351Z,2.67
2019-03-03T09:49:08.697Z,2.70
2019-03-03T09:50:30.617Z,2.35
2019-03-03T09:52:02.765Z,2.50
2019-03-03T09:53:44.155Z,2.50
2019-03-03T09:54:56.701Z,2.87
2019-03-03T09:56:18.829Z,2.75
2019-03-03T09:57:35.768Z,2.10
2019-03-03T09:58:57.728Z,2.25
2019-03-03T10:00:15.363Z,2.37
2019-03-03T10:01:36.280Z,1.75
2019-03-03T10:03:05.625Z,2.27
2019-03-03T10:04:20.837Z,2.72
2019-03-03T10:05:59.351Z,2.20
2019-03-03T10:07:13.629Z,2.40
2019-03-03T10:08:36.726Z,2.35
2019-03-03T10:09:48.719Z,2.27
2019-03-03T10:11:10.632Z,2.33
2019-03-03T10:12:33.802Z,2.40
2019-03-03T10:14:12.349Z,3.05
2019-03-03T10:15:25.757Z,2.30
2019-03-03T10:17:01.094Z,2.47
2019-03-03T10:18:17.760Z,2.58
2019-03-03T10:19:50.160Z,2.10
2019-03-03T10:21:03.378Z,2.25
2019-03-03T10:22:33.002Z,1.90
2019-03-03T10:23:58.357Z,2.30
2019-03-03T10:25:22.225Z,1.87
2019-03-03T10:26:42.399Z,2.02
2019-03-03T10:28:08.082Z,2.10
2019-03-03T10:29:37.500Z,2.22
2019-03-03T10:30:47.968Z,1.85
2019-03-03T10:32:26.911Z,2.20
2019-03-03T10:33:48.780Z,2.30
2019-03-03T10:35:14.667Z,2.05
2019-03-03T10:36:35.971Z,2.52
2019-03-03T10:37:53.428Z,1.90
2019-03-03T10:39:19.655Z,2.12
2019-03-03T10:40:52.116Z,2.05
2019-03-03T10:42:14.336Z,2.42
2019-03-03T10:43:23.132Z,2.15
2019-03-03T10:44:53.361Z,2.15
2019-03-03T10:46:15.552Z,1.62
2019-03-03T10:47:37.436Z,2.02
2019-03-03T10:48:50.286Z,2.17
2019-03-03T10:50:31.643Z,1.80
2019-03-03T10:51:53.639Z,2.10
2019-03-03T10:53:04.961Z,2.05
2019-03-03T10:54:18.420Z,1.90
2019-03-03T10:55:47.408Z,2.60
2019-03-03T10:57:02.176Z,1.98
2019-03-03T10:58:18.129Z,1.92
2019-03-03T10:59:55.064Z,2.42
2019-03-03T11:01:14.738Z,1.77
2019-03-03T11:02:47.060Z,1.85
2019-03-03T11:04:08.981Z,2.10
2019-03-03T11:05:44.499Z,1.65
2019-03-03T11:07:11.109Z,1.77
2019-03-03T11:08:37.413Z,1.95
2019-03-03T11:09:52.217Z,1.70
2019-03-03T11:11:19.154Z,1.70
2019-03-03T11:12:45.175Z,2.05
2019-03-03T11:14:07.247Z,1.98
2019-03-03T11:15:28.807Z,1.75
2019-03-03T11:16:50.677Z,1.85
2019-03-03T11:18:14.466Z,2.00
2019-03-03T11:19:35.701Z,1.60
2019-03-03T11:20:59.035Z,2.10
2019-03-03T11:22:13.060Z,1.67
2019-03-03T11:23:39.083Z,2.30
2019-03-03T11:25:14.976Z,2.20
2019-03-03T11:26:47.307Z,1.77
2019-03-03T11:27:59.525Z,1.77
2019-03-03T11:29:29.101Z,2.10
2019-03-03T11:30:41.997Z,2.05
2019-03-03T11:31:59.522Z,1.92
2019-03-03T11:33:15.940Z,1.42
2019-03-03T11:34:42.011Z,1.57
2019-03-03T11:36:05.684Z,1.80
2019-03-03T11:37:23.065Z,2.05
2019-03-03T11:38:45.288Z,1.55
2019-03-03T11:39:59.208Z,1.60
2019-03-03T11:41:15.624Z,1.95
2019-03-03T11:42:38.846Z,1.75
2019-03-03T11:43:57.245Z,1.90
2019-03-03T11:45:20.507Z,1.65
2019-03-03T11:46:51.518Z,1.70
2019-03-03T11:48:16.729Z,1.50
2019-03-03T11:49:42.731Z,1.67
2019-03-03T11:51:00.733Z,1.60
2019-03-03T11:52:18.494Z,1.30
2019-03-03T11:53:46.255Z,1.42
2019-03-03T11:55:24.815Z,1.77
2019-03-03T11:56:46.833Z,1.70
2019-03-03T11:58:13.009Z,1.70
2019-03-03T11:59:42.259Z,1.27
2019-03-03T12:01:08.531Z,1.50
2019-03-03T12:02:37.530Z,2.25
2019-03-03T12:04:06.775Z,1.47
2019-03-03T12:05:24.807Z,1.30
2019-03-03T12:06:53.889Z,1.50
2019-03-03T12:08:19.917Z,1.40
2019-03-03T12:09:42.053Z,1.70
2019-03-03T12:10:58.464Z,1.50
2019-03-03T12:12:20.784Z,1.20
2019-03-03T12:13:42.786Z,1.27
2019-03-03T12:15:04.754Z,1.80
2019-03-03T12:16:30.835Z,1.70
2019-03-03T12:17:44.604Z,2.02
2019-03-03T12:19:20.093Z,1.60
2019-03-03T12:20:47.183Z,1.30
2019-03-03T12:22:22.522Z,2.12
2019-03-03T12:23:58.229Z,1.75
2019-03-03T12:25:33.761Z,1.52
2019-03-03T12:26:50.866Z,1.50
2019-03-03T12:28:03.065Z,1.35
2019-03-03T12:29:27.177Z,1.80
2019-03-03T12:30:47.935Z,1.65
2019-03-03T12:32:00.410Z,1.42
2019-03-03T12:33:22.443Z,1.62
2019-03-03T12:34:39.198Z,1.50
2019-03-03T12:35:49.248Z,1.60
2019-03-03T12:37:21.274Z,1.42
2019-03-03T12:38:42.891Z,2.05
2019-03-03T12:40:04.323Z,1.35
2019-03-03T12:41:33.794Z,1.60
2019-03-03T12:43:00.506Z,1.45
2019-03-03T12:44:13.405Z,1.87
2019-03-03T12:45:45.837Z,1.90
2019-03-03T12:47:15.562Z,2.10
2019-03-03T12:48:37.686Z,2.22
2019-03-03T12:50:16.303Z,1.70
2019-03-03T12:51:42.377Z,1.85
2019-03-03T12:53:17.944Z,2.05
2019-03-03T12:54:40.074Z,1.92
2019-03-03T12:56:01.006Z,1.80
2019-03-03T12:57:33.597Z,2.00
2019-03-03T12:59:03.053Z,2.05
2019-03-03T13:00:20.372Z,1.60
2019-03-03T13:01:53.277Z,2.00
2019-03-03T13:03:15.352Z,1.90
2019-03-03T13:04:33.535Z,1.82
2019-03-03T13:06:24.041Z,1.40
2019-03-03T13:07:58.483Z,1.85
2019-03-03T13:09:24.616Z,2.10
2019-03-03T13:10:50.859Z,1.50
2019-03-03T13:12:23.101Z,1.98
2019-03-03T13:13:33.819Z,2.05
2019-03-03T13:14:59.791Z,2.27
2019-03-03T13:16:16.912Z,2.00
2019-03-03T13:17:32.797Z,1.50
2019-03-03T13:19:01.751Z,2.05
2019-03-03T13:20:29.120Z,2.60
2019-03-03T13:21:46.861Z,2.65
2019-03-03T13:22:59.862Z,2.42
2019-03-03T13:24:19.843Z,1.62
2019-03-03T13:25:30.824Z,2.12
2019-03-03T13:26:44.840Z,2.83
2019-03-03T13:28:10.793Z,2.20
2019-03-03T13:29:34.091Z,2.20
2019-03-03T13:30:55.210Z,2.10
2019-03-03T13:32:18.444Z,1.70
2019-03-03T13:33:47.536Z,1.75
2019-03-03T13:35:05.954Z,1.82
2019-03-03T13:36:32.192Z,1.92
2019-03-03T13:37:55.466Z,2.20
2019-03-03T13:39:27.818Z,1.80
2019-03-03T13:40:45.926Z,2.25
2019-03-03T13:41:58.766Z,2.30
2019-03-03T13:43:03.003Z,2.00
2019-03-03T13:44:07.224Z,2.05
2019-03-03T13:45:12.574Z,2.45
2019-03-03T13:46:16.947Z,2.67
2019-03-03T13:47:21.265Z,2.50
2019-03-03T13:48:25.596Z,2.05
2019-03-03T13:49:29.966Z,2.42
2019-03-03T13:50:34.368Z,2.02
2019-03-03T13:51:38.683Z,2.45
2019-03-03T13:52:43.203Z,2.20
2019-03-03T13:53:47.511Z,3.67
2019-03-03T13:54:51.795Z,2.55
2019-03-03T13:55:56.347Z,2.30
2019-03-03T13:57:00.922Z,1.90
2019-03-03T13:58:05.384Z,2.17
2019-03-03T13:59:09.664Z,2.25
2019-03-03T14:00:18.276Z,1.90
2019-03-03T14:01:22.521Z,2.47
2019-03-03T14:02:26.883Z,2.45
2019-03-03T14:03:31.125Z,1.85
2019-03-03T14:04:35.303Z,2.00
2019-03-03T14:05:39.941Z,2.20
2019-03-03T14:06:44.393Z,1.40
2019-03-03T14:07:48.911Z,2.30
2019-03-03T14:08:53.209Z,2.20
2019-03-03T14:09:57.389Z,2.33
2019-03-03T14:11:01.595Z,2.05
2019-03-03T14:12:06.180Z,2.45
2019-03-03T14:13:10.437Z,1.90
2019-03-03T14:14:14.931Z,2.72
2019-03-03T14:15:19.869Z,2.98
2019-03-03T14:16:24.072Z,2.40
2019-03-03T14:17:28.356Z,2.10
2019-03-03T14:18:32.676Z,1.95
2019-03-03T14:19:36.838Z,2.12
2019-03-03T14:20:41.172Z,2.05
2019-03-03T14:21:45.475Z,2.33
2019-03-03T14:22:49.829Z,2.25
2019-03-03T14:23:54.221Z,2.00
2019-03-03T14:24:58.539Z,1.70
2019-03-03T14:26:02.861Z,1.82
2019-03-03T14:27:10.600Z,1.50
2019-03-03T14:28:13.045Z,1.75
2019-03-03T14:29:17.264Z,2.20
2019-03-03T14:30:23.062Z,1.85
2019-03-03T14:31:27.315Z,2.10
2019-03-03T14:32:31.532Z,2.30
2019-03-03T14:33:35.811Z,1.72
2019-03-03T14:34:40.147Z,2.10
2019-03-03T14:35:44.515Z,2.30
2019-03-03T14:36:48.702Z,2.40
2019-03-03T14:37:52.966Z,2.40
2019-03-03T14:38:57.256Z,2.72
2019-03-03T14:40:01.471Z,2.62
2019-03-03T14:41:05.761Z,1.85
2019-03-03T14:42:10.095Z,2.22
2019-03-03T14:43:14.623Z,2.17
2019-03-03T14:44:18.919Z,1.80
2019-03-03T14:45:23.407Z,2.17
2019-03-03T14:46:27.593Z,2.02
2019-03-03T14:47:31.778Z,1.98
2019-03-03T14:48:36.065Z,2.20
2019-03-03T14:49:40.258Z,1.95
2019-03-03T14:50:44.434Z,2.10
2019-03-03T14:51:48.762Z,1.90
2019-03-03T14:52:52.923Z,2.42
2019-03-03T14:53:57.165Z,1.82
2019-03-03T14:55:01.556Z,2.05
2019-03-03T14:56:05.861Z,1.90
2019-03-03T14:57:10.066Z,2.05
2019-03-03T14:58:14.343Z,2.40
2019-03-03T14:59:18.563Z,2.12
2019-03-03T15:00:27.123Z,2.50
2019-03-03T15:01:31.301Z,1.60
2019-03-03T15:02:35.444Z,3.25
2019-03-03T15:03:39.682Z,1.77
2019-03-03T15:04:43.909Z,2.30
2019-03-03T15:05:48.167Z,2.10
2019-03-03T15:06:52.361Z,1.87
2019-03-03T15:07:56.697Z,2.00
2019-03-03T15:09:00.966Z,2.58
2019-03-03T15:10:05.722Z,1.67
2019-03-03T15:11:10.001Z,2.40
2019-03-03T15:12:14.340Z,2.37
2019-03-03T15:13:18.731Z,2.35
2019-03-03T15:14:22.951Z,2.55
2019-03-03T15:15:27.789Z,2.10
2019-03-03T15:16:32.381Z,2.27
2019-03-03T15:17:36.630Z,1.82
2019-03-03T15:18:40.769Z,2.00
2019-03-03T15:19:44.968Z,1.80
2019-03-03T15:20:49.187Z,2.17
2019-03-03T15:21:53.495Z,2.10
2019-03-03T15:22:57.805Z,1.80
2019-03-03T15:24:03.623Z,1.80
2019-03-03T15:25:08.368Z,2.50
2019-03-03T15:26:12.670Z,1.92
2019-03-03T15:27:16.963Z,1.85
2019-03-03T15:28:21.293Z,2.15
2019-03-03T15:29:25.510Z,2.30
2019-03-03T15:30:29.939Z,1.87
2019-03-03T15:31:37.725Z,1.42
2019-03-03T15:32:40.196Z,1.32
2019-03-03T15:33:44.394Z,2.12
2019-03-03T15:34:48.614Z,3.60
2019-03-03T15:35:52.849Z,2.50
2019-03-03T15:36:57.049Z,2.20
2019-03-03T15:38:01.284Z,1.75
2019-03-03T15:39:08.199Z,2.10
2019-03-03T15:40:13.396Z,2.70
2019-03-03T15:41:17.582Z,1.62
2019-03-03T15:42:21.891Z,1.80
2019-03-03T15:43:26.159Z,1.60
2019-03-03T15:44:30.505Z,1.90
2019-03-03T15:45:34.704Z,2.00
2019-03-03T15:46:39.042Z,1.95
2019-03-03T15:47:43.165Z,2.20
2019-03-03T15:48:47.423Z,2.25
2019-03-03T15:49:51.703Z,1.95
2019-03-03T15:50:56.226Z,1.95
2019-03-03T15:52:00.488Z,1.85
2019-03-03T15:53:04.814Z,2.05
2019-03-03T15:54:09.054Z,1.95
2019-03-03T15:55:13.796Z,1.98
2019-03-03T15:56:18.140Z,2.02
2019-03-03T15:57:22.311Z,1.85
2019-03-03T15:58:26.521Z,2.20
2019-03-03T15:59:30.817Z,1.70
2019-03-03T16:00:34.944Z,2.00
2019-03-03T16:01:39.355Z,2.02
2019-03-03T16:02:43.505Z,1.92
2019-03-03T16:03:47.654Z,1.60
2019-03-03T16:04:51.967Z,1.87
2019-03-03T16:05:56.239Z,2.15